createdAt,value
2022-07-29T00:02:12.399Z,26.10
2022-07-29T00:05:36.771Z,26.00
2022-07-29T00:08:59.826Z,26.00
2022-07-29T00:12:25.300Z,26.00
2022-07-29T00:15:49.226Z,26.00
2022-07-29T00:19:12.266Z,26.00
2022-07-29T00:22:39.358Z,26.00
2022-07-29T00:26:02.823Z,26.00
2022-07-29T00:29:34.638Z,26.00
2022-07-29T00:32:58.219Z,25.90
2022-07-29T00:36:21.719Z,25.90
2022-07-29T00:39:46.102Z,26.30
2022-07-29T00:43:09.335Z,25.90
2022-07-29T00:46:32.419Z,25.90
2022-07-29T00:49:55.531Z,25.90
2022-07-29T00:53:18.775Z,25.80
2022-07-29T00:56:43.244Z,25.80
2022-07-29T01:00:08.240Z,25.80
2022-07-29T01:03:31.222Z,25.80
2022-07-29T01:06:55.115Z,25.80
2022-07-29T01:10:18.806Z,25.80
2022-07-29T01:13:44.060Z,25.80
2022-07-29T01:17:13.874Z,25.80
2022-07-29T01:20:51.465Z,25.80
2022-07-29T01:24:35.857Z,25.70
2022-07-29T01:28:23.174Z,25.80
2022-07-29T01:32:00.978Z,25.70
2022-07-29T01:35:27.430Z,25.70
2022-07-29T01:39:04.467Z,25.70
2022-07-29T01:42:33.787Z,25.70
2022-07-29T01:46:01.551Z,25.70
2022-07-29T01:49:29.429Z,25.70
2022-07-29T01:52:58.065Z,25.60
2022-07-29T01:56:23.793Z,25.60
2022-07-29T01:59:48.475Z,25.60
2022-07-29T02:03:13.902Z,25.60
2022-07-29T02:06:40.501Z,25.60
2022-07-29T02:10:05.155Z,25.60
2022-07-29T02:13:31.497Z,25.60
2022-07-29T02:16:56.335Z,25.60
2022-07-29T02:20:19.595Z,25.60
2022-07-29T02:23:50.677Z,25.60
2022-07-29T02:27:15.144Z,25.60
2022-07-29T02:30:42.130Z,25.60
2022-07-29T02:34:08.721Z,25.50
2022-07-29T02:37:34.000Z,25.60
2022-07-29T02:41:00.676Z,25.50
2022-07-29T02:44:30.078Z,25.50
2022-07-29T02:47:59.631Z,25.50
2022-07-29T02:51:41.494Z,25.50
2022-07-29T02:55:16.146Z,25.50
2022-07-29T02:58:43.508Z,25.50
2022-07-29T03:02:07.608Z,25.50
2022-07-29T03:05:31.979Z,25.40
2022-07-29T03:08:56.875Z,25.40
2022-07-29T03:12:20.927Z,25.40
2022-07-29T03:15:46.834Z,25.50
2022-07-29T03:19:10.186Z,25.40
2022-07-29T03:22:33.368Z,25.40
2022-07-29T03:25:56.997Z,25.40
2022-07-29T03:29:20.166Z,25.40
2022-07-29T03:32:44.576Z,25.40
2022-07-29T03:36:08.051Z,25.40
2022-07-29T03:39:36.883Z,25.40
2022-07-29T03:43:02.525Z,25.40
2022-07-29T03:46:28.413Z,25.40
2022-07-29T03:49:55.940Z,25.40
2022-07-29T03:53:19.559Z,25.40
2022-07-29T03:56:47.080Z,25.30
2022-07-29T04:00:11.351Z,25.40
2022-07-29T04:03:34.721Z,25.30
2022-07-29T04:06:59.111Z,25.40
2022-07-29T04:10:25.223Z,25.30
2022-07-29T04:13:53.666Z,25.30
2022-07-29T04:17:16.620Z,25.30
2022-07-29T04:20:39.622Z,25.30
2022-07-29T04:24:04.063Z,25.20
2022-07-29T04:27:27.282Z,25.30
2022-07-29T04:30:50.331Z,25.20
2022-07-29T04:34:14.674Z,25.30
2022-07-29T04:37:37.876Z,25.20
2022-07-29T04:41:02.287Z,25.20
2022-07-29T04:44:28.417Z,25.20
2022-07-29T04:47:52.005Z,25.20
2022-07-29T04:51:15.100Z,25.20
2022-07-29T04:54:38.242Z,25.20
2022-07-29T04:58:02.649Z,25.20
2022-07-29T05:01:25.749Z,25.20
2022-07-29T05:04:48.831Z,25.20
2022-07-29T05:08:11.886Z,25.10
2022-07-29T05:11:34.932Z,25.20
2022-07-29T05:14:59.397Z,25.20
2022-07-29T05:18:22.498Z,25.20
2022-07-29T05:21:49.367Z,25.20
2022-07-29T05:25:12.402Z,25.00
2022-07-29T05:28:36.027Z,25.10
2022-07-29T05:32:00.474Z,25.10
2022-07-29T05:35:23.605Z,25.10
2022-07-29T05:38:46.709Z,25.10
2022-07-29T05:42:10.756Z,25.10
2022-07-29T05:45:34.069Z,25.10
2022-07-29T05:49:13.913Z,25.10
2022-07-29T05:52:50.432Z,25.10
2022-07-29T05:56:13.479Z,25.10
2022-07-29T05:59:38.162Z,25.00
2022-07-29T06:03:01.202Z,25.00
2022-07-29T06:06:25.908Z,25.00
2022-07-29T06:09:49.007Z,25.00
2022-07-29T06:13:12.254Z,25.00
2022-07-29T06:16:35.279Z,25.00
2022-07-29T06:19:58.411Z,25.00
2022-07-29T06:23:23.216Z,25.00
2022-07-29T06:26:46.426Z,25.00
2022-07-29T06:30:10.924Z,25.00
2022-07-29T06:33:34.394Z,25.00
2022-07-29T06:36:57.495Z,25.00
2022-07-29T06:40:39.766Z,25.00
2022-07-29T06:44:02.931Z,25.00
2022-07-29T06:47:25.957Z,25.00
2022-07-29T06:50:49.004Z,25.00
2022-07-29T06:54:12.082Z,24.90
2022-07-29T06:57:36.607Z,24.90
2022-07-29T07:01:00.429Z,25.00
2022-07-29T07:04:23.663Z,24.90
2022-07-29T07:07:46.772Z,24.90
2022-07-29T07:11:10.277Z,24.90
2022-07-29T07:14:34.686Z,24.90
2022-07-29T07:17:58.297Z,24.90
2022-07-29T07:21:21.352Z,24.90
2022-07-29T07:24:44.390Z,24.90
2022-07-29T07:28:07.408Z,24.90
2022-07-29T07:31:31.885Z,24.90
2022-07-29T07:34:54.964Z,24.90
2022-07-29T07:38:17.986Z,24.90
2022-07-29T07:41:41.012Z,24.90
2022-07-29T07:45:13.517Z,24.80
2022-07-29T07:48:38.747Z,24.30
2022-07-29T07:52:01.878Z,24.90
2022-07-29T07:55:25.603Z,24.90
2022-07-29T07:58:48.700Z,24.80
2022-07-29T08:02:11.899Z,24.80
2022-07-29T08:05:37.146Z,24.80
2022-07-29T08:09:26.789Z,24.80
2022-07-29T08:12:45.910Z,24.80
2022-07-29T08:16:16.202Z,24.80
2022-07-29T08:19:39.592Z,24.80
2022-07-29T08:23:04.086Z,24.80
2022-07-29T08:26:27.207Z,24.80
2022-07-29T08:29:50.523Z,24.80
2022-07-29T08:33:13.615Z,24.80
2022-07-29T08:36:37.006Z,24.80
2022-07-29T08:40:01.322Z,24.80
2022-07-29T08:43:24.823Z,24.80
2022-07-29T08:46:47.915Z,24.80
2022-07-29T08:50:11.977Z,24.80
2022-07-29T08:53:35.622Z,24.80
2022-07-29T08:57:00.631Z,24.80
2022-07-29T09:00:25.385Z,24.80
2022-07-29T09:03:48.718Z,24.80
2022-07-29T09:07:12.390Z,24.80
2022-07-29T09:10:37.429Z,24.80
2022-07-29T09:14:01.840Z,24.80
2022-07-29T09:17:43.686Z,24.80
2022-07-29T09:21:25.367Z,24.80
2022-07-29T09:24:49.314Z,24.80
2022-07-29T09:28:14.206Z,24.80
2022-07-29T09:31:40.596Z,24.80
2022-07-29T09:35:17.451Z,24.80
2022-07-29T09:38:40.457Z,24.80
2022-07-29T09:42:05.738Z,24.80
2022-07-29T09:45:31.281Z,24.80
2022-07-29T09:49:11.702Z,24.80
2022-07-29T09:52:47.786Z,24.80
2022-07-29T09:56:11.613Z,24.80
2022-07-29T09:59:35.344Z,24.80
2022-07-29T10:03:03.466Z,24.80
2022-07-29T10:06:27.927Z,24.80
2022-07-29T10:09:59.064Z,24.80
2022-07-29T10:13:22.614Z,24.80
2022-07-29T10:16:46.678Z,24.80
2022-07-29T10:20:16.087Z,24.80
2022-07-29T10:23:46.939Z,24.80
2022-07-29T10:27:11.438Z,24.80
2022-07-29T10:30:35.014Z,24.80
2022-07-29T10:34:06.969Z,24.80
2022-07-29T10:37:45.841Z,24.80
2022-07-29T10:41:32.301Z,24.80
2022-07-29T10:45:08.656Z,24.80
2022-07-29T10:48:31.846Z,24.80
2022-07-29T10:52:00.875Z,24.80
2022-07-29T10:55:39.235Z,24.80
2022-07-29T10:59:27.109Z,24.90
2022-07-29T11:02:59.445Z,24.90
2022-07-29T11:06:26.351Z,24.90
2022-07-29T11:10:27.009Z,24.90
2022-07-29T11:13:55.992Z,24.90
2022-07-29T11:17:21.591Z,25.00
2022-07-29T11:20:45.862Z,25.00
2022-07-29T11:24:28.968Z,25.00
2022-07-29T11:27:54.847Z,25.00
2022-07-29T11:31:19.331Z,25.00
2022-07-29T11:34:44.173Z,25.00
2022-07-29T11:38:28.802Z,25.00
2022-07-29T11:41:52.250Z,25.00
2022-07-29T11:45:41.380Z,25.00
2022-07-29T11:49:09.701Z,25.00
2022-07-29T11:52:49.421Z,25.10
2022-07-29T11:56:17.233Z,25.10
2022-07-29T11:59:42.532Z,25.10
2022-07-29T12:03:08.270Z,25.10
2022-07-29T12:06:31.363Z,25.20
2022-07-29T12:09:57.143Z,25.20
2022-07-29T12:13:22.333Z,25.20
2022-07-29T12:16:45.517Z,25.20
2022-07-29T12:20:09.670Z,25.20
2022-07-29T12:23:35.815Z,25.30
2022-07-29T12:27:02.663Z,25.30
2022-07-29T12:30:35.756Z,25.30
2022-07-29T12:33:59.303Z,25.30
2022-07-29T12:37:40.606Z,25.30
2022-07-29T12:41:05.338Z,25.30
2022-07-29T12:44:45.922Z,25.40
2022-07-29T12:48:10.234Z,25.40
2022-07-29T12:51:34.398Z,25.40
2022-07-29T12:54:57.504Z,25.40
2022-07-29T12:58:35.062Z,25.40
2022-07-29T13:02:00.951Z,25.40
2022-07-29T13:05:25.219Z,25.40
2022-07-29T13:09:01.590Z,25.50
2022-07-29T13:12:24.675Z,25.50
2022-07-29T13:15:49.043Z,25.50
2022-07-29T13:19:14.701Z,25.50
2022-07-29T13:22:37.806Z,25.50
2022-07-29T13:26:08.254Z,25.60
2022-07-29T13:29:31.847Z,25.60
2022-07-29T13:32:56.061Z,25.60
2022-07-29T13:36:20.475Z,25.60
2022-07-29T13:39:43.933Z,25.60
2022-07-29T13:43:16.097Z,25.60
2022-07-29T13:46:40.057Z,25.60
2022-07-29T13:50:03.823Z,25.60
2022-07-29T13:53:30.567Z,25.60
2022-07-29T13:56:53.737Z,25.70
2022-07-29T14:00:17.356Z,25.70
2022-07-29T14:03:42.203Z,25.70
2022-07-29T14:07:09.284Z,25.70
2022-07-29T14:10:34.444Z,25.70
2022-07-29T14:13:57.539Z,25.70
2022-07-29T14:17:20.662Z,25.70
2022-07-29T14:20:43.831Z,25.80
2022-07-29T14:24:15.636Z,25.80
2022-07-29T14:27:42.542Z,25.80
2022-07-29T14:31:05.646Z,25.80
2022-07-29T14:34:28.685Z,25.80
2022-07-29T14:37:51.730Z,25.80
2022-07-29T14:41:14.842Z,25.80
2022-07-29T14:44:39.231Z,25.90
2022-07-29T14:48:02.279Z,25.90
2022-07-29T14:51:25.383Z,25.90
2022-07-29T14:54:55.563Z,26.00
2022-07-29T14:58:18.616Z,26.00
2022-07-29T15:01:43.018Z,26.00
2022-07-29T15:05:06.708Z,26.00
2022-07-29T15:08:30.860Z,26.00
2022-07-29T15:11:53.995Z,26.00
2022-07-29T15:15:16.993Z,26.00
2022-07-29T15:18:41.382Z,26.00
2022-07-29T15:22:05.886Z,26.10
2022-07-29T15:25:29.235Z,26.10
2022-07-29T15:28:52.270Z,26.10
2022-07-29T15:32:15.455Z,26.10
2022-07-29T15:35:40.922Z,26.10
2022-07-29T15:39:04.152Z,26.20
2022-07-29T15:42:27.184Z,26.20
2022-07-29T15:46:04.215Z,26.20
2022-07-29T15:49:46.729Z,26.20
2022-07-29T15:53:13.769Z,26.30
2022-07-29T15:56:36.819Z,26.30
2022-07-29T15:59:59.917Z,26.30
2022-07-29T16:03:23.079Z,25.50
2022-07-29T16:06:46.863Z,26.30
2022-07-29T16:10:11.402Z,26.30
2022-07-29T16:13:34.467Z,26.30
2022-07-29T16:16:58.219Z,26.30
2022-07-29T16:20:22.355Z,26.30
2022-07-29T16:23:45.701Z,26.40
2022-07-29T16:27:10.346Z,26.40
2022-07-29T16:30:33.381Z,26.40
2022-07-29T16:33:56.744Z,26.40
2022-07-29T16:37:19.743Z,26.40
2022-07-29T16:40:42.924Z,26.50
2022-07-29T16:44:07.423Z,26.50
2022-07-29T16:47:30.404Z,26.50
2022-07-29T16:50:53.573Z,26.40
2022-07-29T16:54:16.599Z,26.50
2022-07-29T16:57:39.596Z,26.50
2022-07-29T17:01:04.315Z,25.90
2022-07-29T17:04:27.441Z,26.60
2022-07-29T17:07:50.872Z,26.60
2022-07-29T17:11:13.874Z,26.60
2022-07-29T17:14:36.896Z,26.60
2022-07-29T17:18:01.810Z,26.60
2022-07-29T17:21:35.597Z,26.60
2022-07-29T17:25:10.735Z,26.60
2022-07-29T17:28:43.974Z,26.60
2022-07-29T17:32:07.950Z,26.60
2022-07-29T17:35:50.022Z,26.70
2022-07-29T17:39:13.305Z,26.70
2022-07-29T17:42:36.280Z,26.70
2022-07-29T17:45:59.734Z,26.70
2022-07-29T17:49:22.885Z,26.70
2022-07-29T17:52:47.254Z,26.70
2022-07-29T17:56:10.593Z,26.70
2022-07-29T17:59:33.610Z,26.70
2022-07-29T18:02:56.769Z,26.70
2022-07-29T18:06:19.956Z,26.80
2022-07-29T18:09:44.545Z,26.80
2022-07-29T18:13:07.549Z,26.70
2022-07-29T18:16:30.686Z,26.80
2022-07-29T18:19:53.717Z,26.70
2022-07-29T18:23:17.162Z,26.80
2022-07-29T18:26:41.589Z,26.80
2022-07-29T18:30:05.181Z,26.80
2022-07-29T18:33:28.281Z,26.80
2022-07-29T18:36:51.404Z,26.50
2022-07-29T18:40:14.485Z,26.80
2022-07-29T18:43:38.854Z,26.80
2022-07-29T18:47:02.601Z,26.80
2022-07-29T18:50:29.278Z,26.80
2022-07-29T18:53:52.481Z,26.80
2022-07-29T18:57:55.306Z,26.80
2022-07-29T19:00:59.786Z,26.80
2022-07-29T19:04:22.899Z,26.80
2022-07-29T19:07:45.950Z,26.80
2022-07-29T19:11:09.023Z,26.80
2022-07-29T19:14:32.084Z,26.80
2022-07-29T19:18:00.834Z,26.80
2022-07-29T19:21:24.874Z,27.10
2022-07-29T19:24:47.899Z,26.80
2022-07-29T19:28:10.909Z,26.90
2022-07-29T19:31:33.998Z,26.80
2022-07-29T19:35:16.212Z,26.80
2022-07-29T19:38:39.511Z,26.80
2022-07-29T19:42:03.408Z,26.90
2022-07-29T19:45:26.985Z,26.80
2022-07-29T19:48:50.745Z,26.80
2022-07-29T19:52:15.179Z,26.80
2022-07-29T19:55:38.185Z,26.80
2022-07-29T19:59:01.878Z,26.80
2022-07-29T20:02:24.983Z,26.80
2022-07-29T20:05:50.947Z,26.80
2022-07-29T20:09:20.261Z,26.80
2022-07-29T20:12:43.786Z,26.80
2022-07-29T20:16:08.250Z,26.80
2022-07-29T20:19:32.208Z,26.80
2022-07-29T20:22:55.373Z,26.80
2022-07-29T20:26:20.120Z,26.80
2022-07-29T20:29:43.121Z,26.80
2022-07-29T20:33:06.734Z,26.60
2022-07-29T20:36:29.868Z,26.80
2022-07-29T20:39:52.885Z,26.80
2022-07-29T20:43:17.430Z,26.80
2022-07-29T20:46:40.513Z,26.80
2022-07-29T20:50:03.709Z,26.80
2022-07-29T20:53:26.739Z,26.80
2022-07-29T20:56:49.753Z,26.80
2022-07-29T21:00:15.107Z,26.70
2022-07-29T21:03:38.193Z,26.70
2022-07-29T21:07:01.749Z,26.70
2022-07-29T21:10:25.714Z,26.70
2022-07-29T21:13:49.116Z,26.70
2022-07-29T21:17:13.513Z,26.70
2022-07-29T21:20:36.546Z,26.70
2022-07-29T21:24:02.499Z,26.70
2022-07-29T21:27:43.010Z,26.70
2022-07-29T21:31:07.257Z,26.70
2022-07-29T21:34:31.582Z,26.60
2022-07-29T21:37:54.610Z,26.60
2022-07-29T21:41:17.633Z,26.60
2022-07-29T21:44:41.156Z,26.50
2022-07-29T21:48:04.148Z,26.60
2022-07-29T21:51:28.521Z,26.60
2022-07-29T21:54:51.537Z,26.60
2022-07-29T21:58:15.403Z,26.60
2022-07-29T22:01:39.142Z,26.60
2022-07-29T22:05:02.488Z,26.60
2022-07-29T22:08:26.884Z,26.60
2022-07-29T22:11:49.932Z,26.60
2022-07-29T22:15:13.216Z,26.50
2022-07-29T22:18:37.325Z,26.50
2022-07-29T22:22:00.316Z,26.50
2022-07-29T22:25:24.737Z,26.50
2022-07-29T22:28:47.792Z,26.50
2022-07-29T22:32:10.830Z,26.50
2022-07-29T22:35:33.871Z,26.50
2022-07-29T22:38:56.923Z,26.40
2022-07-29T22:42:21.296Z,26.40
2022-07-29T22:45:44.421Z,26.40
2022-07-29T22:49:07.519Z,26.40
2022-07-29T22:52:30.530Z,26.40
2022-07-29T22:55:53.531Z,26.40
2022-07-29T22:59:17.893Z,26.40
2022-07-29T23:02:41.439Z,26.30
2022-07-29T23:06:04.840Z,26.30
2022-07-29T23:09:27.853Z,26.30
2022-07-29T23:12:50.781Z,26.30
2022-07-29T23:16:15.215Z,26.30
2022-07-29T23:19:49.863Z,26.30
2022-07-29T23:23:13.115Z,26.50
2022-07-29T23:26:36.762Z,26.30
2022-07-29T23:29:59.974Z,26.30
2022-07-29T23:33:24.361Z,26.30
2022-07-29T23:36:47.374Z,26.30
2022-07-29T23:40:14.482Z,26.30
2022-07-29T23:43:37.989Z,26.20
2022-07-29T23:47:01.274Z,26.20
2022-07-29T23:50:26.042Z,26.20
2022-07-29T23:53:53.059Z,26.20
2022-07-29T23:57:17.313Z,26.10
